Time;durP1;ratioP1;P1;durP2;ratioP2;P2;SDS_P1;SDS_P2;PMS_P1;PMS_P2;Temp;Humidity;BMP_temperature;BMP_pressure;BME280_temperature;BME280_humidity;BME280_pressure;Samples;Min_cycle;Max_cycle;Signal;HPM_P1;HPM_P2
2022/07/27 00:02:03;;;;;;;2.80;0.80;;;;;;;;;;5099647;28;20694;-59
2022/07/27 00:04:31;;;;;;;1.70;0.80;;;;;;;;;;5099798;28;20249;-59
2022/07/27 00:06:59;;;;;;;1.73;0.80;;;;;;;;;;5098306;28;20292;-59
2022/07/27 00:09:27;;;;;;;3.80;0.80;;;;;;;;;;5099558;28;20233;-59
2022/07/27 00:11:55;;;;;;;1.20;0.70;;;;;;;;;;5099534;28;20198;-59
2022/07/27 00:14:23;;;;;;;1.27;0.80;;;;;;;;;;5099300;28;20312;-59
2022/07/27 00:16:52;;;;;;;1.23;0.80;;;;;;;;;;5099648;28;20242;-59
2022/07/27 00:19:22;;;;;;;1.20;1.10;;;;;;;;;;5099645;28;20213;-59
2022/07/27 00:21:50;;;;;;;0.80;0.70;;;;;;;;;;5099230;28;20259;-59
2022/07/27 00:24:19;;;;;;;2.17;0.90;;;;;;;;;;5098824;28;20359;-59
2022/07/27 00:26:47;;;;;;;1.07;0.90;;;;;;;;;;5099400;28;20237;-59
2022/07/27 00:29:15;;;;;;;1.57;0.93;;;;;;;;;;5099045;28;20239;-59
2022/07/27 00:31:46;;;;;;;0.80;0.80;;;;;;;;;;5099324;28;20232;-59
2022/07/27 00:34:15;;;;;;;0.90;0.90;;;;;;;;;;5098782;28;20217;-59
2022/07/27 00:36:43;;;;;;;2.23;1.10;;;;;;;;;;5099283;28;20233;-59
2022/07/27 00:39:14;;;;;;;0.80;0.80;;;;;;;;;;5099066;28;20222;-59
2022/07/27 00:41:42;;;;;;;4.70;1.00;;;;;;;;;;5099003;28;20259;-59
2022/07/27 00:44:11;;;;;;;0.63;0.63;;;;;;;;;;5098644;28;20249;-59
2022/07/27 00:46:39;;;;;;;1.00;0.70;;;;;;;;;;5098790;28;20204;-59
2022/07/27 00:49:07;;;;;;;3.60;1.27;;;;;;;;;;5099084;28;20204;-59
2022/07/27 00:51:37;;;;;;;0.93;0.93;;;;;;;;;;5098591;28;20204;-59
2022/07/27 00:54:05;;;;;;;1.43;0.93;;;;;;;;;;5098828;28;20229;-59
2022/07/27 00:56:33;;;;;;;1.10;0.70;;;;;;;;;;5098821;28;20613;-59
2022/07/27 00:59:01;;;;;;;1.40;0.80;;;;;;;;;;5084975;28;20208;-59
2022/07/27 01:01:29;;;;;;;2.00;0.90;;;;;;;;;;5098377;28;20224;-59
2022/07/27 01:03:57;;;;;;;0.87;0.87;;;;;;;;;;5098330;28;20773;-59
2022/07/27 01:06:27;;;;;;;1.10;1.00;;;;;;;;;;5098383;28;20640;-59
2022/07/27 01:09:55;;;;;;;2.37;1.00;;;;;;;;;;5098426;28;20207;-59
2022/07/27 01:11:46;;;;;;;1.13;0.83;;;;;;;;;;5098043;28;20241;-59
2022/07/27 01:14:14;;;;;;;1.20;1.10;;;;;;;;;;5097945;28;20759;-59
2022/07/27 01:16:43;;;;;;;1.27;0.90;;;;;;;;;;5098427;28;20238;-59
2022/07/27 01:19:11;;;;;;;1.43;0.90;;;;;;;;;;5098296;28;20236;-59
2022/07/27 01:21:42;;;;;;;1.10;0.77;;;;;;;;;;5098186;28;20570;-59
2022/07/27 01:24:10;;;;;;;4.37;1.03;;;;;;;;;;5097902;28;20280;-59
2022/07/27 01:26:38;;;;;;;3.23;0.83;;;;;;;;;;5084888;28;20251;-59
2022/07/27 01:29:06;;;;;;;4.30;0.80;;;;;;;;;;5097778;28;20206;-59
2022/07/27 01:31:35;;;;;;;1.03;0.80;;;;;;;;;;5098028;28;20638;-59
2022/07/27 01:34:04;;;;;;;1.03;0.70;;;;;;;;;;5098170;28;20223;-59
2022/07/27 01:36:32;;;;;;;7.30;1.23;;;;;;;;;;5098227;28;20209;-59
2022/07/27 01:39:01;;;;;;;1.00;0.93;;;;;;;;;;5097829;28;20246;-59
2022/07/27 01:41:29;;;;;;;2.73;0.87;;;;;;;;;;5098056;28;20237;-58
2022/07/27 01:43:57;;;;;;;2.43;0.90;;;;;;;;;;5097489;28;21059;-58
2022/07/27 01:46:25;;;;;;;1.10;1.00;;;;;;;;;;5098327;28;20236;-58
2022/07/27 01:48:54;;;;;;;1.80;1.57;;;;;;;;;;5097823;28;20205;-60
2022/07/27 01:51:22;;;;;;;4.20;1.03;;;;;;;;;;5098203;28;20603;-59
2022/07/27 01:53:50;;;;;;;3.23;0.97;;;;;;;;;;5097643;28;20264;-58
2022/07/27 01:56:19;;;;;;;3.10;1.03;;;;;;;;;;5097555;28;20234;-58
2022/07/27 01:58:47;;;;;;;1.80;0.90;;;;;;;;;;5097652;28;20238;-58
2022/07/27 02:01:15;;;;;;;1.40;0.70;;;;;;;;;;5097707;28;20260;-59
2022/07/27 02:03:43;;;;;;;2.17;1.37;;;;;;;;;;5097695;28;20283;-58
2022/07/27 02:06:11;;;;;;;1.40;1.40;;;;;;;;;;5097926;28;20205;-58
2022/07/27 02:08:40;;;;;;;3.03;1.00;;;;;;;;;;5097856;28;20232;-58
2022/07/27 02:13:54;;;;;;;2.97;1.00;;;;;;;;;;5097273;28;20652;-58
2022/07/27 02:16:22;;;;;;;2.07;0.70;;;;;;;;;;5097477;28;20695;-59
2022/07/27 02:18:51;;;;;;;0.93;0.90;;;;;;;;;;5097527;28;20205;-59
2022/07/27 02:21:19;;;;;;;1.13;0.90;;;;;;;;;;5097485;28;20243;-59
2022/07/27 02:23:47;;;;;;;1.77;0.70;;;;;;;;;;5097400;28;20263;-59
2022/07/27 02:26:15;;;;;;;1.50;0.90;;;;;;;;;;5097258;28;20635;-59
2022/07/27 02:28:43;;;;;;;0.80;0.80;;;;;;;;;;5097585;28;20240;-59
2022/07/27 02:31:12;;;;;;;2.33;0.80;;;;;;;;;;5101253;28;20206;-59
2022/07/27 02:33:40;;;;;;;1.37;0.80;;;;;;;;;;5101485;28;20264;-59
2022/07/27 02:36:08;;;;;;;2.20;0.97;;;;;;;;;;5101414;28;20240;-59
2022/07/27 02:38:36;;;;;;;2.90;0.90;;;;;;;;;;5101514;28;20201;-59
2022/07/27 02:41:04;;;;;;;1.57;0.83;;;;;;;;;;5101426;28;20233;-59
2022/07/27 02:43:32;;;;;;;2.70;1.03;;;;;;;;;;5101026;28;20671;-59
2022/07/27 02:46:00;;;;;;;3.63;1.00;;;;;;;;;;5100988;28;20265;-59
2022/07/27 02:48:31;;;;;;;1.00;0.80;;;;;;;;;;5101092;28;20212;-59
2022/07/27 02:51:00;;;;;;;1.97;1.03;;;;;;;;;;5100934;28;20241;-59
2022/07/27 02:53:28;;;;;;;1.90;1.00;;;;;;;;;;5101110;28;20221;-58
2022/07/27 02:55:56;;;;;;;1.50;0.70;;;;;;;;;;5101054;28;20211;-59
2022/07/27 02:58:24;;;;;;;1.73;0.87;;;;;;;;;;5101041;28;20206;-59
2022/07/27 03:00:52;;;;;;;3.07;0.80;;;;;;;;;;5100748;28;20239;-59
2022/07/27 03:03:25;;;;;;;1.80;1.17;;;;;;;;;;5100937;28;20289;-58
2022/07/27 03:06:05;;;;;;;1.00;0.80;;;;;;;;;;5100824;28;20299;-60
2022/07/27 03:08:33;;;;;;;0.80;0.80;;;;;;;;;;5100958;28;20205;-60
2022/07/27 03:11:01;;;;;;;2.10;0.87;;;;;;;;;;5100802;28;20208;-60
2022/07/27 03:13:29;;;;;;;1.60;0.83;;;;;;;;;;5100438;28;20295;-61
2022/07/27 03:15:57;;;;;;;3.43;1.63;;;;;;;;;;5100296;28;20212;-58
2022/07/27 03:18:25;;;;;;;3.73;0.80;;;;;;;;;;5100399;28;20259;-58
2022/07/27 03:20:53;;;;;;;0.73;0.73;;;;;;;;;;5100359;28;20575;-60
2022/07/27 03:23:23;;;;;;;3.10;0.90;;;;;;;;;;5099972;28;20716;-60
2022/07/27 03:25:51;;;;;;;1.37;1.13;;;;;;;;;;5100088;28;20216;-58
2022/07/27 03:28:19;;;;;;;1.40;0.70;;;;;;;;;;5100488;28;20249;-59
2022/07/27 03:30:46;;;;;;;1.63;0.83;;;;;;;;;;5099873;28;20252;-58
2022/07/27 03:33:16;;;;;;;2.40;0.90;;;;;;;;;;5100336;28;20248;-59
2022/07/27 03:35:44;;;;;;;1.93;1.07;;;;;;;;;;5100233;28;20206;-59
2022/07/27 03:38:12;;;;;;;2.07;1.00;;;;;;;;;;5100189;28;20596;-58
2022/07/27 03:40:42;;;;;;;2.80;0.80;;;;;;;;;;5099861;28;20255;-59
2022/07/27 03:43:10;;;;;;;1.23;0.93;;;;;;;;;;5099845;28;20255;-59
2022/07/27 03:45:38;;;;;;;0.80;0.70;;;;;;;;;;5099922;28;20236;-59
2022/07/27 03:48:06;;;;;;;2.60;0.80;;;;;;;;;;5100115;28;20292;-59
2022/07/27 03:50:34;;;;;;;0.97;0.87;;;;;;;;;;5100082;28;20201;-59
2022/07/27 03:53:02;;;;;;;0.80;0.80;;;;;;;;;;5091230;28;20209;-59
2022/07/27 03:55:30;;;;;;;3.90;1.00;;;;;;;;;;5099547;28;20214;-59
2022/07/27 03:58:00;;;;;;;0.70;0.70;;;;;;;;;;5099620;28;20332;-59
2022/07/27 04:00:28;;;;;;;1.33;0.83;;;;;;;;;;5099363;28;20205;-59
2022/07/27 04:02:56;;;;;;;2.67;1.00;;;;;;;;;;5099403;28;20222;-59
2022/07/27 04:05:24;;;;;;;4.70;1.00;;;;;;;;;;5099488;28;20215;-59
2022/07/27 04:07:56;;;;;;;2.20;0.97;;;;;;;;;;5099776;28;20205;-59
2022/07/27 04:10:24;;;;;;;2.67;1.17;;;;;;;;;;5099234;28;20238;-59
2022/07/27 04:13:00;;;;;;;6.50;1.03;;;;;;;;;;5100155;28;20251;-59
2022/07/27 04:15:30;;;;;;;5.37;1.07;;;;;;;;;;5095500;28;20193;-59
2022/07/27 04:17:58;;;;;;;1.00;0.70;;;;;;;;;;5100568;28;20686;-59
2022/07/27 04:20:26;;;;;;;2.33;1.20;;;;;;;;;;5098333;28;20278;-59
2022/07/27 04:22:55;;;;;;;0.80;0.77;;;;;;;;;;5095960;28;20234;-61
2022/07/27 04:25:23;;;;;;;5.67;0.93;;;;;;;;;;5099484;28;20225;-59
2022/07/27 04:27:53;;;;;;;2.63;0.90;;;;;;;;;;5097223;28;20195;-59
2022/07/27 04:30:25;;;;;;;1.70;0.90;;;;;;;;;;5100369;28;20215;-59
2022/07/27 04:32:53;;;;;;;1.60;0.90;;;;;;;;;;5098867;28;20202;-60
2022/07/27 04:35:21;;;;;;;1.60;0.60;;;;;;;;;;5097861;28;20657;-59
2022/07/27 04:37:53;;;;;;;4.00;1.30;;;;;;;;;;5097885;28;20200;-59
2022/07/27 04:40:29;;;;;;;3.67;1.40;;;;;;;;;;5097726;28;20207;-59
2022/07/27 04:42:57;;;;;;;2.20;0.93;;;;;;;;;;5098604;28;20274;-59
2022/07/27 04:45:27;;;;;;;4.50;1.30;;;;;;;;;;5097346;28;20796;-60
2022/07/27 04:47:55;;;;;;;1.43;1.10;;;;;;;;;;5098470;28;20203;-59
2022/07/27 04:50:23;;;;;;;1.50;1.03;;;;;;;;;;5099308;28;20203;-59
2022/07/27 04:52:51;;;;;;;5.67;1.87;;;;;;;;;;5095449;28;20227;-59
2022/07/27 04:55:19;;;;;;;2.70;1.33;;;;;;;;;;5099445;28;20529;-59
2022/07/27 04:57:47;;;;;;;2.73;0.90;;;;;;;;;;5098436;28;20226;-59
2022/07/27 05:00:15;;;;;;;4.40;1.37;;;;;;;;;;5098382;28;20234;-59
2022/07/27 05:02:45;;;;;;;3.00;1.13;;;;;;;;;;5097301;28;20241;-59
2022/07/27 05:05:13;;;;;;;3.87;0.90;;;;;;;;;;5098277;28;20226;-59
2022/07/27 05:07:41;;;;;;;3.00;1.00;;;;;;;;;;5098631;28;20243;-59
2022/07/27 05:10:09;;;;;;;2.27;0.80;;;;;;;;;;5097711;28;20207;-59
2022/07/27 05:12:43;;;;;;;5.17;1.03;;;;;;;;;;5097496;28;20290;-59
2022/07/27 05:15:11;;;;;;;5.43;1.33;;;;;;;;;;5097348;28;20791;-59
2022/07/27 05:17:39;;;;;;;3.53;1.17;;;;;;;;;;5097030;28;20222;-59
2022/07/27 05:20:09;;;;;;;2.33;1.20;;;;;;;;;;5098475;28;20213;-59
2022/07/27 05:22:37;;;;;;;1.87;1.00;;;;;;;;;;5098031;28;20602;-59
2022/07/27 05:25:07;;;;;;;4.13;1.07;;;;;;;;;;5097891;28;20571;-59
2022/07/27 05:27:36;;;;;;;0.90;0.90;;;;;;;;;;5097977;28;20259;-59
2022/07/27 05:30:21;;;;;;;2.07;0.90;;;;;;;;;;5097849;28;20207;-59
2022/07/27 05:32:49;;;;;;;2.57;1.10;;;;;;;;;;5098085;28;20274;-59
2022/07/27 05:35:19;;;;;;;2.00;0.83;;;;;;;;;;5097868;28;20226;-59
2022/07/27 05:37:47;;;;;;;1.47;0.90;;;;;;;;;;5102147;28;20229;-59
2022/07/27 05:40:15;;;;;;;1.47;1.00;;;;;;;;;;5103303;28;20235;-62
2022/07/27 05:42:43;;;;;;;2.63;1.30;;;;;;;;;;5085666;28;20201;-62
2022/07/27 05:45:12;;;;;;;1.40;1.00;;;;;;;;;;5090079;28;20257;-61
2022/07/27 05:47:40;;;;;;;3.53;1.03;;;;;;;;;;5095522;28;20714;-61
2022/07/27 05:50:08;;;;;;;3.73;1.20;;;;;;;;;;5092534;28;20647;-61
2022/07/27 05:52:38;;;;;;;3.53;1.20;;;;;;;;;;5094592;28;20201;-61
2022/07/27 05:55:06;;;;;;;6.93;1.37;;;;;;;;;;5093854;28;20232;-61
2022/07/27 05:57:34;;;;;;;5.67;1.30;;;;;;;;;;5090576;28;20578;-61
2022/07/27 06:00:02;;;;;;;1.00;0.87;;;;;;;;;;5096527;28;20643;-61
2022/07/27 06:02:30;;;;;;;2.73;1.03;;;;;;;;;;5094328;28;20705;-61
2022/07/27 06:04:58;;;;;;;3.73;1.00;;;;;;;;;;5096583;28;20272;-62
2022/07/27 06:10:18;;;;;;;2.43;1.10;;;;;;;;;;5105656;28;20203;-61
2022/07/27 06:12:46;;;;;;;5.47;1.00;;;;;;;;;;5096647;28;20210;-61
2022/07/27 06:15:15;;;;;;;3.43;0.90;;;;;;;;;;5098932;28;20570;-61
2022/07/27 06:17:45;;;;;;;1.50;0.90;;;;;;;;;;5101294;28;20665;-61
2022/07/27 06:20:13;;;;;;;1.77;0.83;;;;;;;;;;5112371;28;20209;-61
2022/07/27 06:22:44;;;;;;;2.67;1.10;;;;;;;;;;5100739;28;20303;-61
2022/07/27 06:25:13;;;;;;;2.07;0.90;;;;;;;;;;5101361;28;20225;-61
2022/07/27 06:27:42;;;;;;;1.80;1.23;;;;;;;;;;5099028;28;20664;-61
2022/07/27 06:30:10;;;;;;;4.47;1.27;;;;;;;;;;5108231;28;20660;-61
2022/07/27 06:32:38;;;;;;;3.77;0.80;;;;;;;;;;5106594;28;20322;-61
2022/07/27 06:35:09;;;;;;;6.47;0.90;;;;;;;;;;5104110;28;20208;-61
2022/07/27 06:37:42;;;;;;;1.13;1.03;;;;;;;;;;5101295;28;20212;-61
2022/07/27 06:40:12;;;;;;;1.60;1.00;;;;;;;;;;5099813;28;20209;-61
2022/07/27 06:42:40;;;;;;;1.87;0.90;;;;;;;;;;5090294;28;20232;-61
2022/07/27 06:45:10;;;;;;;2.30;0.90;;;;;;;;;;5092985;28;20233;-61
2022/07/27 06:47:40;;;;;;;2.03;1.10;;;;;;;;;;5086506;28;20202;-61
2022/07/27 06:50:17;;;;;;;6.67;1.80;;;;;;;;;;5097735;28;20212;-61
2022/07/27 06:52:45;;;;;;;2.47;1.20;;;;;;;;;;5098731;28;20212;-61
2022/07/27 06:55:13;;;;;;;1.60;1.20;;;;;;;;;;5102485;28;20656;-62
2022/07/27 06:57:41;;;;;;;3.37;1.30;;;;;;;;;;5100438;28;20254;-61
2022/07/27 07:00:12;;;;;;;2.20;1.17;;;;;;;;;;5100827;28;20203;-61
2022/07/27 07:02:50;;;;;;;3.90;1.37;;;;;;;;;;5110540;28;20208;-62
2022/07/27 07:05:18;;;;;;;3.47;1.00;;;;;;;;;;5108567;28;20263;-62
2022/07/27 07:07:46;;;;;;;1.97;0.80;;;;;;;;;;5100503;28;20211;-61
2022/07/27 07:10:14;;;;;;;1.73;0.97;;;;;;;;;;5118338;28;20630;-62
2022/07/27 07:12:42;;;;;;;4.77;1.40;;;;;;;;;;5107144;28;20695;-61
2022/07/27 07:15:12;;;;;;;6.23;1.20;;;;;;;;;;5099016;28;20254;-61
2022/07/27 07:17:41;;;;;;;2.80;1.40;;;;;;;;;;5100124;28;20232;-62
2022/07/27 07:20:10;;;;;;;5.00;1.60;;;;;;;;;;5100482;28;20238;-62
2022/07/27 07:22:38;;;;;;;3.13;1.40;;;;;;;;;;5091458;28;20247;-62
2022/07/27 07:25:06;;;;;;;2.60;1.33;;;;;;;;;;5089070;28;20271;-62
2022/07/27 07:27:34;;;;;;;6.10;1.20;;;;;;;;;;5098753;28;20231;-61
2022/07/27 07:30:02;;;;;;;2.23;1.00;;;;;;;;;;5100222;28;20233;-62
2022/07/27 07:32:31;;;;;;;6.40;1.03;;;;;;;;;;5096479;28;20276;-62
2022/07/27 07:35:02;;;;;;;5.03;1.10;;;;;;;;;;5097378;28;20623;-61
2022/07/27 07:37:31;;;;;;;2.70;2.60;;;;;;;;;;5096553;28;20253;-61
2022/07/27 07:40:01;;;;;;;4.83;1.40;;;;;;;;;;5099464;28;20215;-62
2022/07/27 07:42:50;;;;;;;1.97;0.90;;;;;;;;;;5098609;28;20286;-61
2022/07/27 07:45:18;;;;;;;2.00;1.03;;;;;;;;;;5098996;28;20220;-62
2022/07/27 07:47:47;;;;;;;2.63;0.90;;;;;;;;;;5098936;28;20207;-61
2022/07/27 07:50:15;;;;;;;1.13;1.03;;;;;;;;;;5094483;28;20209;-61
2022/07/27 07:52:43;;;;;;;1.90;1.00;;;;;;;;;;5085194;28;20222;-62
2022/07/27 07:55:11;;;;;;;1.60;1.13;;;;;;;;;;5095356;28;20226;-62
2022/07/27 07:57:40;;;;;;;0.97;0.90;;;;;;;;;;5094714;28;20202;-62
2022/07/27 08:00:08;;;;;;;4.60;1.47;;;;;;;;;;5098994;28;20690;-62
2022/07/27 08:02:43;;;;;;;4.10;1.00;;;;;;;;;;5098336;28;20214;-62
2022/07/27 08:05:13;;;;;;;2.77;1.07;;;;;;;;;;5099368;28;20232;-61
2022/07/27 08:07:41;;;;;;;1.70;0.90;;;;;;;;;;5093134;28;20232;-61
2022/07/27 08:10:10;;;;;;;1.77;0.90;;;;;;;;;;5096521;28;20254;-62
2022/07/27 08:12:39;;;;;;;4.53;1.57;;;;;;;;;;5096495;28;20578;-62
2022/07/27 08:15:08;;;;;;;1.47;1.20;;;;;;;;;;5097667;28;20221;-62
2022/07/27 08:17:36;;;;;;;3.00;0.97;;;;;;;;;;5098986;28;20210;-62
2022/07/27 08:20:04;;;;;;;1.10;1.00;;;;;;;;;;5098783;28;20209;-62
2022/07/27 08:22:35;;;;;;;1.70;1.00;;;;;;;;;;5104905;28;20240;-63
2022/07/27 08:25:03;;;;;;;5.03;1.00;;;;;;;;;;5098679;28;20651;-63
2022/07/27 08:27:31;;;;;;;2.67;1.10;;;;;;;;;;5093360;28;20700;-62
2022/07/27 08:30:08;;;;;;;3.30;1.20;;;;;;;;;;5089604;28;20209;-62
2022/07/27 08:32:46;;;;;;;4.63;1.40;;;;;;;;;;5097037;28;20213;-62
2022/07/27 08:35:15;;;;;;;4.17;1.00;;;;;;;;;;5096765;28;20554;-62
2022/07/27 08:37:45;;;;;;;3.00;1.10;;;;;;;;;;5106327;28;20668;-62
2022/07/27 08:40:13;;;;;;;2.77;0.83;;;;;;;;;;5102339;28;20207;-64
2022/07/27 08:43:02;;;;;;;7.00;1.30;;;;;;;;;;5098482;28;20214;-62
2022/07/27 08:45:32;;;;;;;4.33;1.20;;;;;;;;;;5093796;28;20686;-62
2022/07/27 08:48:00;;;;;;;1.00;0.80;;;;;;;;;;5090227;28;20237;-63
2022/07/27 08:50:29;;;;;;;2.23;1.10;;;;;;;;;;5098711;28;20210;-62
2022/07/27 08:53:03;;;;;;;2.23;0.90;;;;;;;;;;5085779;28;20205;-63
2022/07/27 08:55:31;;;;;;;1.03;0.93;;;;;;;;;;5096917;28;20211;-62
2022/07/27 08:57:59;;;;;;;3.93;0.87;;;;;;;;;;5108844;28;20262;-63
2022/07/27 09:00:30;;;;;;;4.07;0.70;;;;;;;;;;5097758;28;20257;-62
2022/07/27 09:02:58;;;;;;;3.63;1.27;;;;;;;;;;5098116;28;20654;-62
2022/07/27 09:05:26;;;;;;;2.93;1.07;;;;;;;;;;5084800;28;20219;-63
2022/07/27 09:08:13;;;;;;;1.67;0.80;;;;;;;;;;5095958;28;20684;-62
2022/07/27 09:10:41;;;;;;;0.73;0.63;;;;;;;;;;5098130;28;20209;-62
2022/07/27 09:13:33;;;;;;;2.50;0.80;;;;;;;;;;5094387;28;20226;-63
2022/07/27 09:16:02;;;;;;;1.70;1.20;;;;;;;;;;5082370;28;20263;-62
2022/07/27 09:18:45;;;;;;;1.43;1.07;;;;;;;;;;5091373;28;20253;-62
2022/07/27 09:21:15;;;;;;;2.27;1.00;;;;;;;;;;5095512;28;20199;-62
2022/07/27 09:23:45;;;;;;;1.97;1.10;;;;;;;;;;5102647;28;20238;-61
2022/07/27 09:26:16;;;;;;;3.87;1.00;;;;;;;;;;5099947;28;20219;-63
2022/07/27 09:28:59;;;;;;;2.77;0.97;;;;;;;;;;5098562;28;20224;-62
2022/07/27 09:31:28;;;;;;;2.40;0.70;;;;;;;;;;5097945;28;20208;-62
2022/07/27 09:33:57;;;;;;;1.87;1.10;;;;;;;;;;5097612;28;20219;-61
2022/07/27 09:36:26;;;;;;;0.90;0.90;;;;;;;;;;5096095;28;20229;-62
2022/07/27 09:38:57;;;;;;;2.13;1.13;;;;;;;;;;5097306;28;20206;-61
2022/07/27 09:41:41;;;;;;;1.90;0.87;;;;;;;;;;5093957;28;20244;-62
2022/07/27 09:44:09;;;;;;;0.70;0.70;;;;;;;;;;5098136;28;20222;-61
2022/07/27 09:46:57;;;;;;;5.77;1.10;;;;;;;;;;5095136;28;20261;-61
2022/07/27 09:49:29;;;;;;;3.40;1.00;;;;;;;;;;5102014;28;20207;-61
2022/07/27 09:51:58;;;;;;;3.53;1.07;;;;;;;;;;5092965;28;20205;-61
2022/07/27 09:54:41;;;;;;;3.17;1.10;;;;;;;;;;5096337;28;20253;-61
2022/07/27 09:57:09;;;;;;;1.83;0.77;;;;;;;;;;5096882;28;20252;-61
2022/07/27 09:59:37;;;;;;;1.40;0.90;;;;;;;;;;5090995;28;20195;-62
2022/07/27 10:02:06;;;;;;;2.70;0.80;;;;;;;;;;5099252;28;20258;-61
2022/07/27 10:04:34;;;;;;;1.03;1.00;;;;;;;;;;5095440;28;20218;-61
2022/07/27 10:07:02;;;;;;;2.50;0.87;;;;;;;;;;5097247;28;20285;-61
2022/07/27 10:09:38;;;;;;;2.83;0.90;;;;;;;;;;5093536;28;20269;-61
2022/07/27 10:12:06;;;;;;;1.50;0.80;;;;;;;;;;5099833;28;20206;-61
2022/07/27 10:14:35;;;;;;;1.97;0.70;;;;;;;;;;5103260;28;20227;-60
2022/07/27 10:17:03;;;;;;;3.87;2.10;;;;;;;;;;5104469;28;20231;-61
2022/07/27 10:19:34;;;;;;;1.83;1.00;;;;;;;;;;5099228;28;20203;-61
2022/07/27 10:22:02;;;;;;;1.27;0.73;;;;;;;;;;5101281;28;20198;-60
2022/07/27 10:24:33;;;;;;;2.10;1.10;;;;;;;;;;5097766;28;20238;-60
2022/07/27 10:27:17;;;;;;;2.17;0.77;;;;;;;;;;5096532;28;20217;-60
2022/07/27 10:29:46;;;;;;;2.77;0.80;;;;;;;;;;5099978;28;20202;-60
2022/07/27 10:32:22;;;;;;;0.73;0.70;;;;;;;;;;5113673;28;20203;-59
2022/07/27 10:34:50;;;;;;;1.47;1.00;;;;;;;;;;5098008;28;20236;-60
2022/07/27 10:37:25;;;;;;;1.37;0.83;;;;;;;;;;5096004;28;20207;-60
2022/07/27 10:40:33;;;;;;;1.10;1.00;;;;;;;;;;5096905;28;20272;-60
2022/07/27 10:42:43;;;;;;;1.67;1.00;;;;;;;;;;5100238;28;20207;-61
2022/07/27 10:45:18;;;;;;;5.10;1.20;;;;;;;;;;5094992;28;20361;-61
2022/07/27 10:47:48;;;;;;;1.40;1.17;;;;;;;;;;5094282;28;20692;-60
2022/07/27 10:50:28;;;;;;;0.83;0.80;;;;;;;;;;5116558;28;20210;-61
2022/07/27 10:52:57;;;;;;;1.17;0.80;;;;;;;;;;5100162;28;20664;-61
2022/07/27 10:55:41;;;;;;;1.00;0.73;;;;;;;;;;5098986;28;20208;-61
2022/07/27 10:58:27;;;;;;;4.53;0.90;;;;;;;;;;5099080;28;20232;-61
2022/07/27 11:01:00;;;;;;;2.10;0.73;;;;;;;;;;5100530;28;20212;-61
2022/07/27 11:03:29;;;;;;;1.63;0.73;;;;;;;;;;5095922;28;20256;-61
2022/07/27 11:05:58;;;;;;;2.50;0.90;;;;;;;;;;5105235;28;20542;-61
2022/07/27 11:08:45;;;;;;;2.50;1.00;;;;;;;;;;5097722;28;20629;-61
2022/07/27 11:11:17;;;;;;;2.67;1.20;;;;;;;;;;5097537;28;20232;-61
2022/07/27 11:13:45;;;;;;;3.83;1.30;;;;;;;;;;5101040;28;20226;-61
2022/07/27 11:16:17;;;;;;;1.00;0.93;;;;;;;;;;5099380;28;20560;-61
2022/07/27 11:18:53;;;;;;;1.43;0.67;;;;;;;;;;5104215;28;20201;-61
2022/07/27 11:21:21;;;;;;;1.33;0.77;;;;;;;;;;5085056;28;20204;-60
2022/07/27 11:23:54;;;;;;;0.90;0.80;;;;;;;;;;5100062;28;20233;-60
2022/07/27 11:26:23;;;;;;;0.70;0.70;;;;;;;;;;5082131;28;20204;-60
2022/07/27 11:28:51;;;;;;;1.37;0.80;;;;;;;;;;5095913;28;20230;-60
2022/07/27 11:31:20;;;;;;;4.07;1.23;;;;;;;;;;5094704;28;20200;-60
2022/07/27 11:34:08;;;;;;;1.33;0.80;;;;;;;;;;5095716;28;20309;-60
2022/07/27 11:36:38;;;;;;;3.83;1.00;;;;;;;;;;5099333;28;20639;-60
2022/07/27 11:39:08;;;;;;;3.63;1.00;;;;;;;;;;5100068;28;20207;-60
2022/07/27 11:41:42;;;;;;;2.53;1.00;;;;;;;;;;5098720;28;20202;-60
2022/07/27 11:44:30;;;;;;;2.60;0.87;;;;;;;;;;5098457;28;20228;-60
2022/07/27 11:47:02;;;;;;;0.87;0.87;;;;;;;;;;5099145;28;20201;-60
2022/07/27 11:49:31;;;;;;;1.07;0.80;;;;;;;;;;5092344;28;20220;-61
2022/07/27 11:52:00;;;;;;;8.93;2.00;;;;;;;;;;5084781;28;20227;-61
2022/07/27 11:54:29;;;;;;;4.67;1.23;;;;;;;;;;5099531;28;20326;-61
2022/07/27 11:56:59;;;;;;;0.97;0.90;;;;;;;;;;5083748;28;20226;-61
2022/07/27 11:59:27;;;;;;;1.23;0.80;;;;;;;;;;5087123;28;20288;-60
2022/07/27 12:01:57;;;;;;;2.97;1.30;;;;;;;;;;5085009;28;20562;-61
2022/07/27 12:04:27;;;;;;;2.57;1.43;;;;;;;;;;5088343;28;20257;-60
2022/07/27 12:07:03;;;;;;;2.57;1.00;;;;;;;;;;5086285;28;20211;-60
2022/07/27 12:09:33;;;;;;;2.63;0.90;;;;;;;;;;5090239;28;20721;-61
2022/07/27 12:12:09;;;;;;;2.80;0.80;;;;;;;;;;5095767;28;20237;-60
2022/07/27 12:14:38;;;;;;;2.03;1.00;;;;;;;;;;5097930;28;20270;-61
2022/07/27 12:17:13;;;;;;;0.63;0.63;;;;;;;;;;5090233;28;20232;-60
2022/07/27 12:19:42;;;;;;;1.47;1.00;;;;;;;;;;5093483;28;20252;-60
2022/07/27 12:22:10;;;;;;;1.47;1.00;;;;;;;;;;5084830;28;20247;-61
2022/07/27 12:24:39;;;;;;;1.33;0.97;;;;;;;;;;5086579;28;20218;-60
2022/07/27 12:27:11;;;;;;;1.47;1.13;;;;;;;;;;5086444;28;20220;-60
2022/07/27 12:29:59;;;;;;;1.27;1.10;;;;;;;;;;5089176;28;20226;-60
2022/07/27 12:32:27;;;;;;;5.60;1.00;;;;;;;;;;5092706;28;20201;-60
2022/07/27 12:34:57;;;;;;;2.90;1.20;;;;;;;;;;5096350;28;20221;-60
2022/07/27 12:37:29;;;;;;;1.87;1.03;;;;;;;;;;5096151;28;20255;-60
2022/07/27 12:39:57;;;;;;;3.40;1.10;;;;;;;;;;5085453;28;20201;-60
2022/07/27 12:42:35;;;;;;;1.30;1.00;;;;;;;;;;5087463;28;20202;-60
2022/07/27 12:45:17;;;;;;;4.57;1.00;;;;;;;;;;5086430;28;20262;-60
2022/07/27 12:47:45;;;;;;;4.33;1.20;;;;;;;;;;5090600;28;20727;-60
2022/07/27 12:50:15;;;;;;;1.80;0.80;;;;;;;;;;5088331;28;20195;-60
2022/07/27 12:52:44;;;;;;;3.83;0.93;;;;;;;;;;5095994;28;20207;-60
2022/07/27 12:55:16;;;;;;;1.90;1.10;;;;;;;;;;5098635;28;20213;-60
2022/07/27 12:57:44;;;;;;;3.13;1.00;;;;;;;;;;5092675;28;20661;-60
2022/07/27 13:00:23;;;;;;;2.43;0.80;;;;;;;;;;5085807;28;20211;-60
2022/07/27 13:03:00;;;;;;;3.07;1.00;;;;;;;;;;5085178;28;20284;-60
2022/07/27 13:05:30;;;;;;;1.23;0.93;;;;;;;;;;5085411;28;20203;-60
2022/07/27 13:07:58;;;;;;;2.63;1.13;;;;;;;;;;5088957;28;20217;-60
2022/07/27 13:10:26;;;;;;;2.63;0.73;;;;;;;;;;5092307;28;20197;-60
2022/07/27 13:12:55;;;;;;;1.80;0.87;;;;;;;;;;5086235;28;20238;-60
2022/07/27 13:15:23;;;;;;;1.50;0.80;;;;;;;;;;5079333;28;20697;-60
2022/07/27 13:17:51;;;;;;;1.67;0.90;;;;;;;;;;5086167;28;20199;-60
2022/07/27 13:20:19;;;;;;;1.70;1.17;;;;;;;;;;5085743;28;20228;-60
2022/07/27 13:22:49;;;;;;;0.98;0.80;;;;;;;;;;5092896;28;20236;-60
2022/07/27 13:25:17;;;;;;;3.22;1.10;;;;;;;;;;5092142;28;20249;-60
2022/07/27 13:27:45;;;;;;;0.80;0.80;;;;;;;;;;5090749;28;20542;-60
2022/07/27 13:30:14;;;;;;;1.70;1.17;;;;;;;;;;5091447;28;20206;-60
2022/07/27 13:32:43;;;;;;;2.60;1.00;;;;;;;;;;5087773;28;20237;-60
2022/07/27 13:35:11;;;;;;;1.83;1.00;;;;;;;;;;5093716;28;20218;-61
2022/07/27 13:37:40;;;;;;;1.77;1.13;;;;;;;;;;5086624;28;20222;-62
2022/07/27 13:40:10;;;;;;;2.55;0.90;;;;;;;;;;5087789;28;20244;-60
2022/07/27 13:42:38;;;;;;;3.65;1.33;;;;;;;;;;5086667;28;20347;-61
2022/07/27 13:45:07;;;;;;;2.78;1.05;;;;;;;;;;5085026;28;20280;-62
2022/07/27 13:47:39;;;;;;;4.88;1.20;;;;;;;;;;5092171;28;20204;-60
2022/07/27 13:50:08;;;;;;;2.22;1.00;;;;;;;;;;5091044;28;20330;-59
2022/07/27 13:52:44;;;;;;;2.63;1.20;;;;;;;;;;5093040;28;20202;-58
2022/07/27 13:55:15;;;;;;;1.65;0.93;;;;;;;;;;5093832;28;20570;-58
2022/07/27 13:57:43;;;;;;;2.88;1.05;;;;;;;;;;5085820;28;20204;-58
2022/07/27 14:00:12;;;;;;;3.08;0.90;;;;;;;;;;5089535;28;20198;-58
2022/07/27 14:02:40;;;;;;;0.93;0.80;;;;;;;;;;5097331;28;20212;-58
2022/07/27 14:05:09;;;;;;;1.00;0.90;;;;;;;;;;5094243;28;20308;-57
2022/07/27 14:07:41;;;;;;;1.77;1.00;;;;;;;;;;5086945;28;20199;-58
2022/07/27 14:13:00;;;;;;;2.45;0.80;;;;;;;;;;5092196;28;20208;-58
2022/07/27 14:15:35;;;;;;;2.38;0.90;;;;;;;;;;5081662;28;20200;-58
2022/07/27 14:18:21;;;;;;;3.92;0.88;;;;;;;;;;5083060;28;20240;-57
2022/07/27 14:20:49;;;;;;;2.83;0.85;;;;;;;;;;5088785;28;20231;-59
2022/07/27 14:23:17;;;;;;;2.47;0.85;;;;;;;;;;5083430;28;20276;-57
2022/07/27 14:25:45;;;;;;;1.70;0.93;;;;;;;;;;5093255;28;20204;-57
2022/07/27 14:28:14;;;;;;;4.13;1.13;;;;;;;;;;5096424;28;20228;-58
2022/07/27 14:30:42;;;;;;;1.00;1.00;;;;;;;;;;5095664;28;20201;-57
2022/07/27 14:33:10;;;;;;;2.38;0.98;;;;;;;;;;5092207;28;20262;-57
2022/07/27 14:35:38;;;;;;;1.35;0.73;;;;;;;;;;5093730;28;20239;-57
2022/07/27 14:38:08;;;;;;;1.63;1.10;;;;;;;;;;5098843;28;20289;-58
2022/07/27 14:40:36;;;;;;;1.25;0.80;;;;;;;;;;5085761;28;20198;-58
2022/07/27 14:43:04;;;;;;;0.70;0.68;;;;;;;;;;5084381;28;20216;-58
2022/07/27 14:45:34;;;;;;;3.08;0.75;;;;;;;;;;5098200;28;20679;-58
2022/07/27 14:48:13;;;;;;;3.45;0.98;;;;;;;;;;5097832;28;20205;-58
2022/07/27 14:50:47;;;;;;;1.77;0.88;;;;;;;;;;5087055;28;21773;-59
2022/07/27 14:53:15;;;;;;;2.10;1.10;;;;;;;;;;5085446;28;20241;-57
2022/07/27 14:55:43;;;;;;;1.95;1.00;;;;;;;;;;5098173;28;20210;-58
2022/07/27 14:58:11;;;;;;;1.05;0.90;;;;;;;;;;5092584;28;20201;-58
2022/07/27 15:00:41;;;;;;;1.48;0.80;;;;;;;;;;5092299;28;20204;-58
2022/07/27 15:03:09;;;;;;;1.30;0.95;;;;;;;;;;5086217;28;20267;-57
2022/07/27 15:05:41;;;;;;;2.47;0.73;;;;;;;;;;5097047;28;20280;-57
2022/07/27 15:08:17;;;;;;;2.42;1.10;;;;;;;;;;5092010;28;20201;-58
2022/07/27 15:10:45;;;;;;;1.48;0.80;;;;;;;;;;5095595;28;20624;-58